Time;durP1;ratioP1;P1;durP2;ratioP2;P2;SDS_P1;SDS_P2;PMS_P1;PMS_P2;Temp;Humidity;BMP_temperature;BMP_pressure;BME280_temperature;BME280_humidity;BME280_pressure;Samples;Min_cycle;Max_cycle;Signal;HPM_P1;HPM_P2
2022/04/14 00:01:18;;;;;;;;;;;11.00;99.90;;;;;;5071105;28;19939;-80
2022/04/14 00:03:45;;;;;;;;;;;11.10;99.90;;;;;;5065927;28;19925;-80
2022/04/14 00:06:11;;;;;;;;;;;11.10;99.90;;;;;;5071874;28;19966;-81
2022/04/14 00:08:38;;;;;;;;;;;11.00;99.90;;;;;;5070436;28;19978;-81
2022/04/14 00:11:04;;;;;;;;;;;11.00;99.90;;;;;;5068008;28;20394;-79
2022/04/14 00:13:31;;;;;;;;;;;10.90;99.90;;;;;;5064659;28;19932;-80
2022/04/14 00:15:57;;;;;;;;;;;10.90;99.90;;;;;;5069366;28;19925;-80
2022/04/14 00:18:24;;;;;;;;;;;11.00;99.90;;;;;;5079567;28;19924;-80
2022/04/14 00:20:50;;;;;;;;;;;11.00;99.90;;;;;;5065356;28;20371;-80
2022/04/14 00:23:17;;;;;;;;;;;11.00;99.90;;;;;;5071489;28;19936;-80
2022/04/14 00:25:44;;;;;;;;;;;11.00;99.90;;;;;;5067141;28;20360;-80
2022/04/14 00:28:10;;;;;;;;;;;10.90;99.90;;;;;;5070068;28;19931;-81
2022/04/14 00:30:37;;;;;;;;;;;10.90;99.90;;;;;;5064869;28;19936;-85
2022/04/14 00:33:03;;;;;;;;;;;10.90;99.90;;;;;;5071358;28;19931;-79
2022/04/14 00:35:30;;;;;;;;;;;10.90;99.90;;;;;;5071045;28;19932;-80
2022/04/14 00:37:56;;;;;;;;;;;10.90;99.90;;;;;;5070686;28;20160;-80
2022/04/14 00:40:23;;;;;;;;;;;10.90;99.90;;;;;;5070787;28;19924;-81
2022/04/14 00:42:49;;;;;;;;;;;10.90;99.90;;;;;;5067536;28;19932;-81
2022/04/14 00:45:16;;;;;;;;;;;10.90;99.90;;;;;;5063952;28;19963;-80
2022/04/14 00:47:42;;;;;;;;;;;10.90;99.90;;;;;;5070055;28;19925;-81
2022/04/14 00:50:09;;;;;;;;;;;10.90;99.90;;;;;;5069256;28;19924;-81
2022/04/14 00:52:36;;;;;;;;;;;10.80;99.90;;;;;;5064381;28;19924;-81
2022/04/14 00:55:02;;;;;;;;;;;10.90;99.90;;;;;;5074510;28;19924;-80
2022/04/14 00:57:29;;;;;;;;;;;10.90;99.90;;;;;;5064650;28;19931;-80
2022/04/14 00:59:55;;;;;;;;;;;10.90;99.90;;;;;;5070113;28;19939;-81
2022/04/14 01:02:22;;;;;;;;;;;10.90;99.90;;;;;;5066201;28;19932;-80
2022/04/14 01:04:49;;;;;;;;;;;10.90;99.90;;;;;;5061526;28;19932;-80
2022/04/14 01:07:15;;;;;;;;;;;10.90;99.90;;;;;;5070230;28;19925;-81
2022/04/14 01:09:42;;;;;;;;;;;10.90;99.90;;;;;;5069969;28;19925;-81
2022/04/14 01:12:08;;;;;;;;;;;10.90;99.90;;;;;;5070916;28;19928;-81
2022/04/14 01:14:35;;;;;;;;;;;10.80;99.90;;;;;;5070312;28;19989;-81
2022/04/14 01:17:02;;;;;;;;;;;10.80;99.90;;;;;;5069827;28;19928;-82
2022/04/14 01:19:28;;;;;;;;;;;10.80;99.90;;;;;;5072139;28;19925;-80
2022/04/14 01:21:55;;;;;;;;;;;10.80;99.90;;;;;;5069215;28;19928;-81
2022/04/14 01:24:21;;;;;;;;;;;10.80;99.90;;;;;;5065176;28;19925;-80
2022/04/14 01:26:48;;;;;;;;;;;10.80;99.90;;;;;;5053622;28;19932;-81
2022/04/14 01:29:14;;;;;;;;;;;10.80;99.90;;;;;;5058255;28;19925;-80
2022/04/14 01:31:41;;;;;;;;;;;10.80;99.90;;;;;;5069915;28;19986;-85
2022/04/14 01:34:07;;;;;;;;;;;10.80;99.90;;;;;;5099902;28;20011;-80
2022/04/14 01:36:34;;;;;;;;;;;10.90;99.90;;;;;;5057928;28;19939;-80
2022/04/14 01:39:00;;;;;;;;;;;10.90;99.90;;;;;;5070565;28;19931;-80
2022/04/14 01:41:27;;;;;;;;;;;10.90;99.90;;;;;;5077679;28;19935;-80
2022/04/14 01:43:53;;;;;;;;;;;10.90;99.90;;;;;;5059986;28;19925;-80
2022/04/14 01:46:20;;;;;;;;;;;10.80;99.90;;;;;;5070842;28;19925;-80
2022/04/14 01:48:47;;;;;;;;;;;10.80;99.90;;;;;;5059123;28;19932;-80
2022/04/14 01:51:13;;;;;;;;;;;10.80;99.90;;;;;;5070389;28;20027;-80
2022/04/14 01:53:40;;;;;;;;;;;10.80;99.90;;;;;;5070286;28;20316;-81
2022/04/14 01:56:06;;;;;;;;;;;10.80;99.90;;;;;;5060247;28;20367;-81
2022/04/14 01:58:33;;;;;;;;;;;10.80;99.90;;;;;;5062842;28;19925;-81
2022/04/14 02:01:00;;;;;;;;;;;10.80;99.90;;;;;;5062141;28;20383;-80
2022/04/14 02:03:26;;;;;;;;;;;10.80;99.90;;;;;;5067960;28;20356;-83
2022/04/14 02:05:53;;;;;;;;;;;10.70;99.90;;;;;;5058544;28;19924;-80
2022/04/14 02:08:19;;;;;;;;;;;10.70;99.90;;;;;;5060638;28;19925;-81
2022/04/14 02:10:46;;;;;;;;;;;10.70;99.90;;;;;;5060110;28;19928;-85
2022/04/14 02:13:12;;;;;;;;;;;10.70;99.90;;;;;;5070589;28;19932;-81
2022/04/14 02:15:39;;;;;;;;;;;10.70;99.90;;;;;;5071043;28;19980;-81
2022/04/14 02:18:05;;;;;;;;;;;10.70;99.90;;;;;;5069928;28;19925;-83
2022/04/14 02:20:32;;;;;;;;;;;10.70;99.90;;;;;;5070616;28;19947;-80
2022/04/14 02:22:58;;;;;;;;;;;10.70;99.90;;;;;;5103564;28;20364;-81
2022/04/14 02:25:25;;;;;;;;;;;10.70;99.90;;;;;;5069989;28;19977;-80
2022/04/14 02:27:51;;;;;;;;;;;10.70;99.90;;;;;;5069725;28;19924;-81
2022/04/14 02:30:18;;;;;;;;;;;10.70;99.90;;;;;;5057921;28;19929;-80
2022/04/14 02:32:44;;;;;;;;;;;10.70;99.90;;;;;;5073991;28;19925;-86
2022/04/14 02:35:11;;;;;;;;;;;10.60;99.90;;;;;;5073091;28;19977;-81
2022/04/14 02:37:37;;;;;;;;;;;10.60;99.90;;;;;;5068411;28;20388;-81
2022/04/14 02:40:04;;;;;;;;;;;10.60;99.90;;;;;;5063227;28;20383;-81
2022/04/14 02:42:31;;;;;;;;;;;10.50;99.90;;;;;;5073966;28;19968;-80
2022/04/14 02:44:57;;;;;;;;;;;10.50;99.90;;;;;;5060024;28;19925;-81
2022/04/14 02:47:24;;;;;;;;;;;10.50;99.90;;;;;;5067219;28;20360;-81
2022/04/14 02:49:50;;;;;;;;;;;10.50;99.90;;;;;;5068461;28;20363;-81
2022/04/14 02:52:17;;;;;;;;;;;10.40;99.90;;;;;;5072826;28;19925;-80
2022/04/14 02:54:43;;;;;;;;;;;10.40;99.90;;;;;;5070651;28;20383;-80
2022/04/14 02:57:10;;;;;;;;;;;10.30;99.90;;;;;;5104832;28;19928;-81
2022/04/14 02:59:37;;;;;;;;;;;10.30;99.90;;;;;;5071667;28;19924;-79
2022/04/14 03:02:03;;;;;;;;;;;10.30;99.90;;;;;;5071366;28;19928;-79
2022/04/14 03:04:30;;;;;;;;;;;10.30;99.90;;;;;;5073290;28;19931;-80
2022/04/14 03:06:56;;;;;;;;;;;10.30;99.90;;;;;;5070062;28;20346;-83
2022/04/14 03:09:23;;;;;;;;;;;10.30;99.90;;;;;;5063834;28;19925;-81
2022/04/14 03:11:49;;;;;;;;;;;10.30;99.90;;;;;;5072265;28;19928;-86
2022/04/14 03:14:16;;;;;;;;;;;10.30;99.90;;;;;;5072932;28;19924;-80
2022/04/14 03:16:42;;;;;;;;;;;10.30;99.90;;;;;;5073091;28;19925;-81
2022/04/14 03:19:09;;;;;;;;;;;10.30;99.90;;;;;;5072558;28;19920;-81
2022/04/14 03:21:36;;;;;;;;;;;10.20;99.90;;;;;;5060730;28;19947;-81
2022/04/14 03:24:02;;;;;;;;;;;10.20;99.90;;;;;;5062900;28;19925;-81
2022/04/14 03:26:29;;;;;;;;;;;10.20;99.90;;;;;;5072944;28;19928;-79
2022/04/14 03:28:55;;;;;;;;;;;10.20;99.90;;;;;;5072254;28;19924;-81
2022/04/14 03:31:22;;;;;;;;;;;10.10;99.90;;;;;;5067811;28;19931;-81
2022/04/14 03:33:48;;;;;;;;;;;10.10;99.90;;;;;;5072775;28;19935;-81
2022/04/14 03:36:15;;;;;;;;;;;10.10;99.90;;;;;;5072985;28;19935;-81
2022/04/14 03:38:41;;;;;;;;;;;10.10;99.90;;;;;;5060707;28;19936;-82
2022/04/14 03:41:08;;;;;;;;;;;10.10;99.90;;;;;;5067391;28;19931;-81
2022/04/14 03:43:35;;;;;;;;;;;10.00;99.90;;;;;;5071916;28;19925;-80
2022/04/14 03:46:02;;;;;;;;;;;10.00;99.90;;;;;;5072157;28;19936;-81
2022/04/14 03:48:28;;;;;;;;;;;10.00;99.90;;;;;;5070111;28;20882;-81
2022/04/14 03:50:55;;;;;;;;;;;10.00;99.90;;;;;;5055009;28;19970;-81
2022/04/14 03:53:22;;;;;;;;;;;10.00;99.90;;;;;;5069433;28;19924;-80
2022/04/14 03:55:48;;;;;;;;;;;10.00;99.90;;;;;;5070313;28;19939;-81
2022/04/14 03:58:15;;;;;;;;;;;9.90;99.90;;;;;;5060889;28;19929;-81
2022/04/14 04:00:42;;;;;;;;;;;9.90;99.90;;;;;;5072584;28;19925;-80
2022/04/14 04:03:08;;;;;;;;;;;9.90;99.90;;;;;;5066298;28;19929;-81
2022/04/14 04:05:35;;;;;;;;;;;9.80;99.90;;;;;;5071727;28;19931;-81
2022/04/14 04:08:01;;;;;;;;;;;9.80;99.90;;;;;;5071554;28;20280;-80
2022/04/14 04:10:28;;;;;;;;;;;9.90;99.90;;;;;;5071420;28;20387;-79
2022/04/14 04:12:54;;;;;;;;;;;9.80;99.90;;;;;;5072643;28;20371;-86
2022/04/14 04:15:21;;;;;;;;;;;9.80;99.90;;;;;;5066447;28;19947;-80
2022/04/14 04:17:47;;;;;;;;;;;9.80;99.90;;;;;;5066890;28;19924;-81
2022/04/14 04:20:15;;;;;;;;;;;9.80;99.90;;;;;;5070467;28;19920;-80
2022/04/14 04:22:41;;;;;;;;;;;9.70;99.90;;;;;;5062508;28;19924;-81
2022/04/14 04:25:08;;;;;;;;;;;9.70;99.90;;;;;;5056499;28;19929;-80
2022/04/14 04:27:35;;;;;;;;;;;9.70;99.90;;;;;;5072263;28;19925;-80
2022/04/14 04:30:02;;;;;;;;;;;9.70;99.90;;;;;;5071034;28;19924;-80
2022/04/14 04:32:28;;;;;;;;;;;9.70;99.90;;;;;;5063004;28;19924;-80
2022/04/14 04:34:55;;;;;;;;;;;9.60;99.90;;;;;;5070347;28;19924;-86
2022/04/14 04:37:21;;;;;;;;;;;9.60;99.90;;;;;;5062900;28;19925;-80
2022/04/14 04:39:50;;;;;;;;;;;9.60;99.90;;;;;;5066722;28;21549;-80
2022/04/14 04:42:16;;;;;;;;;;;9.60;99.90;;;;;;5070806;28;20008;-80
2022/04/14 04:44:43;;;;;;;;;;;9.60;99.90;;;;;;5070815;28;19931;-81
2022/04/14 04:47:09;;;;;;;;;;;9.50;99.90;;;;;;5070675;28;19928;-80
2022/04/14 04:49:36;;;;;;;;;;;9.50;99.90;;;;;;5071757;28;20417;-81
2022/04/14 04:52:02;;;;;;;;;;;9.50;99.90;;;;;;5070557;28;19925;-85
2022/04/14 04:54:29;;;;;;;;;;;9.50;99.90;;;;;;5069650;28;20265;-81
2022/04/14 04:56:55;;;;;;;;;;;9.50;99.90;;;;;;5070396;28;20279;-80
2022/04/14 04:59:22;;;;;;;;;;;9.50;99.90;;;;;;5071116;28;19924;-81
2022/04/14 05:01:48;;;;;;;;;;;9.40;99.90;;;;;;5071130;28;20023;-81
2022/04/14 05:04:15;;;;;;;;;;;9.40;99.90;;;;;;5067467;28;19931;-83
2022/04/14 05:06:42;;;;;;;;;;;9.40;99.90;;;;;;5071219;28;19947;-81
2022/04/14 05:09:08;;;;;;;;;;;9.30;99.90;;;;;;5062038;28;19924;-81
2022/04/14 05:11:35;;;;;;;;;;;9.30;99.90;;;;;;5065103;28;19924;-81
2022/04/14 05:14:01;;;;;;;;;;;9.30;99.90;;;;;;5062338;28;19924;-81
2022/04/14 05:16:28;;;;;;;;;;;9.30;99.90;;;;;;5064928;28;19925;-81
2022/04/14 05:18:54;;;;;;;;;;;9.20;99.90;;;;;;5070416;28;19925;-81
2022/04/14 05:21:21;;;;;;;;;;;9.20;99.90;;;;;;5062556;28;19925;-81
2022/04/14 05:23:48;;;;;;;;;;;9.20;99.90;;;;;;5070193;28;19929;-81
2022/04/14 05:26:14;;;;;;;;;;;9.20;99.90;;;;;;5056807;28;19931;-81
2022/04/14 05:28:41;;;;;;;;;;;9.30;99.90;;;;;;5068251;28;19936;-81
2022/04/14 05:31:07;;;;;;;;;;;9.30;99.90;;;;;;5069477;28;19940;-81
2022/04/14 05:33:34;;;;;;;;;;;9.30;99.90;;;;;;5072238;28;19932;-81
2022/04/14 05:36:00;;;;;;;;;;;9.30;99.90;;;;;;5070217;28;19929;-85
2022/04/14 05:38:27;;;;;;;;;;;9.30;99.90;;;;;;5101042;28;20372;-81
2022/04/14 05:40:55;;;;;;;;;;;9.40;99.90;;;;;;5053508;28;19931;-81
2022/04/14 05:43:24;;;;;;;;;;;9.50;99.90;;;;;;5070033;28;19929;-81
2022/04/14 05:45:51;;;;;;;;;;;9.50;99.90;;;;;;5059791;28;19940;-81
2022/04/14 05:48:17;;;;;;;;;;;9.60;99.90;;;;;;5057170;28;19925;-81
2022/04/14 05:50:44;;;;;;;;;;;9.80;99.90;;;;;;5070601;28;19935;-80
2022/04/14 05:53:10;;;;;;;;;;;9.90;99.90;;;;;;5069626;28;19929;-81
2022/04/14 05:55:37;;;;;;;;;;;10.10;99.90;;;;;;5070154;28;19924;-81
2022/04/14 05:58:04;;;;;;;;;;;10.30;99.90;;;;;;5069512;28;19940;-83
2022/04/14 06:00:30;;;;;;;;;;;10.50;99.90;;;;;;5070717;28;19932;-81
2022/04/14 06:02:59;;;;;;;;;;;10.60;99.90;;;;;;5069776;28;19925;-83
2022/04/14 06:05:26;;;;;;;;;;;10.80;99.90;;;;;;5077584;28;19932;-82
2022/04/14 06:07:52;;;;;;;;;;;11.10;99.90;;;;;;5074094;28;20317;-82
2022/04/14 06:10:19;;;;;;;;;;;11.20;99.90;;;;;;5079235;28;19924;-81
2022/04/14 06:12:45;;;;;;;;;;;11.40;99.90;;;;;;5084506;28;19925;-83
2022/04/14 06:15:12;;;;;;;;;;;11.60;99.90;;;;;;5078356;28;19985;-82
2022/04/14 06:17:39;;;;;;;;;;;11.70;99.90;;;;;;5085667;28;19931;-82
2022/04/14 06:20:05;;;;;;;;;;;11.70;99.90;;;;;;5083793;28;19932;-85
2022/04/14 06:22:32;;;;;;;;;;;11.80;99.90;;;;;;5074407;28;19983;-83
2022/04/14 06:24:58;;;;;;;;;;;12.10;99.90;;;;;;5077862;28;19924;-81
2022/04/14 06:27:25;;;;;;;;;;;12.20;99.90;;;;;;5080132;28;20439;-82
2022/04/14 06:29:52;;;;;;;;;;;12.40;99.90;;;;;;5079408;28;20035;-83
2022/04/14 06:32:18;;;;;;;;;;;12.50;99.90;;;;;;5082978;28;19928;-82
2022/04/14 06:34:45;;;;;;;;;;;12.70;99.90;;;;;;5079401;28;19932;-83
2022/04/14 06:37:11;;;;;;;;;;;12.90;99.90;;;;;;5084757;28;19989;-83
2022/04/14 06:39:38;;;;;;;;;;;13.00;99.90;;;;;;5075180;28;19925;-82
2022/04/14 06:42:05;;;;;;;;;;;12.90;99.90;;;;;;5082141;28;19955;-86
2022/04/14 06:44:31;;;;;;;;;;;12.90;99.90;;;;;;5078322;28;19968;-82
2022/04/14 06:46:58;;;;;;;;;;;13.00;99.90;;;;;;5077496;28;19936;-85
2022/04/14 06:49:24;;;;;;;;;;;13.10;99.90;;;;;;5077821;28;19931;-82
2022/04/14 06:51:51;;;;;;;;;;;13.30;99.90;;;;;;5078056;28;19928;-81
2022/04/14 06:54:17;;;;;;;;;;;13.50;99.90;;;;;;5079501;28;19928;-82
2022/04/14 06:56:44;;;;;;;;;;;13.50;99.90;;;;;;5074459;28;19924;-82
2022/04/14 06:59:10;;;;;;;;;;;13.70;99.90;;;;;;5077041;28;19928;-82
2022/04/14 07:01:37;;;;;;;;;;;13.80;99.90;;;;;;5078338;28;19924;-82
2022/04/14 07:04:05;;;;;;;;;;;13.90;99.90;;;;;;5081625;28;19939;-83
2022/04/14 07:06:32;;;;;;;;;;;14.10;99.90;;;;;;5081613;28;20740;-84
2022/04/14 07:08:58;;;;;;;;;;;14.20;99.90;;;;;;5079338;28;20252;-82
2022/04/14 07:11:25;;;;;;;;;;;14.30;99.90;;;;;;5083189;28;19932;-82
2022/04/14 07:13:51;;;;;;;;;;;14.40;99.90;;;;;;5080889;28;19931;-82
2022/04/14 07:16:18;;;;;;;;;;;14.50;99.90;;;;;;5073237;28;19932;-82
2022/04/14 07:18:45;;;;;;;;;;;14.50;99.90;;;;;;5065431;28;19925;-83
2022/04/14 07:21:11;;;;;;;;;;;14.60;99.90;;;;;;5066596;28;19932;-83
2022/04/14 07:23:38;;;;;;;;;;;14.70;99.90;;;;;;5073119;28;19978;-83
2022/04/14 07:26:04;;;;;;;;;;;14.70;99.90;;;;;;5083224;28;19976;-82
2022/04/14 07:28:31;;;;;;;;;;;14.80;99.90;;;;;;5110715;27;19935;-83
2022/04/14 07:30:58;;;;;;;;;;;14.90;99.90;;;;;;5064068;28;20015;-83
2022/04/14 07:33:24;;;;;;;;;;;14.90;99.90;;;;;;5080567;28;19924;-83
2022/04/14 07:35:52;;;;;;;;;;;15.00;99.90;;;;;;5082387;28;19932;-81
2022/04/14 07:38:18;;;;;;;;;;;15.10;99.90;;;;;;5074711;28;19924;-84
2022/04/14 07:40:45;;;;;;;;;;;15.10;99.90;;;;;;5079576;28;19932;-83
2022/04/14 07:43:12;;;;;;;;;;;15.20;99.90;;;;;;5073726;28;19925;-88
2022/04/14 07:45:38;;;;;;;;;;;15.20;99.90;;;;;;5081845;28;19947;-83
2022/04/14 07:48:05;;;;;;;;;;;15.50;99.90;;;;;;5075430;28;19925;-84
2022/04/14 07:50:32;;;;;;;;;;;15.60;99.90;;;;;;5083349;28;19920;-82
2022/04/14 07:52:59;;;;;;;;;;;15.80;99.90;;;;;;5070425;28;19924;-82
2022/04/14 07:55:26;;;;;;;;;;;15.90;99.90;;;;;;5074894;28;19967;-87
2022/04/14 07:57:52;;;;;;;;;;;15.90;99.90;;;;;;5067450;28;20319;-82
2022/04/14 08:00:19;;;;;;;;;;;16.00;99.90;;;;;;5068617;28;20409;-82
2022/04/14 08:02:45;;;;;;;;;;;16.10;99.90;;;;;;5071763;28;20386;-83
2022/04/14 08:05:12;;;;;;;;;;;16.30;99.90;;;;;;5105563;28;20021;-87
2022/04/14 08:07:38;;;;;;;;;;;16.30;99.90;;;;;;5071978;28;20004;-83
2022/04/14 08:10:05;;;;;;;;;;;16.50;99.90;;;;;;5071258;28;19931;-83
2022/04/14 08:12:32;;;;;;;;;;;16.50;99.90;;;;;;5081062;28;19924;-82
2022/04/14 08:14:58;;;;;;;;;;;16.60;99.90;;;;;;5067007;28;20377;-83
2022/04/14 08:17:25;;;;;;;;;;;16.50;99.90;;;;;;5074288;28;19933;-83
2022/04/14 08:19:51;;;;;;;;;;;16.70;99.90;;;;;;5070662;28;20277;-83
2022/04/14 08:22:18;;;;;;;;;;;16.80;99.90;;;;;;5069513;28;20416;-83
2022/04/14 08:24:47;;;;;;;;;;;16.80;99.90;;;;;;5071695;28;19930;-85
2022/04/14 08:27:14;;;;;;;;;;;16.90;99.90;;;;;;5071557;28;19999;-87
2022/04/14 08:29:41;;;;;;;;;;;17.00;99.90;;;;;;5070555;28;20291;-83
2022/04/14 08:32:09;;;;;;;;;;;17.00;99.90;;;;;;5067327;28;19924;-83
2022/04/14 08:34:35;;;;;;;;;;;17.10;99.90;;;;;;5070752;28;19984;-83
2022/04/14 08:37:02;;;;;;;;;;;17.30;99.90;;;;;;5073482;28;19931;-83
2022/04/14 08:39:30;;;;;;;;;;;17.30;99.90;;;;;;5070761;28;19932;-83
2022/04/14 08:41:56;;;;;;;;;;;17.40;99.90;;;;;;5065384;28;19925;-83
2022/04/14 08:44:25;;;;;;;;;;;17.50;99.90;;;;;;5069990;28;19928;-83
2022/04/14 08:46:51;;;;;;;;;;;17.40;99.90;;;;;;5070611;28;19943;-85
2022/04/14 08:49:18;;;;;;;;;;;17.40;99.90;;;;;;5070396;28;19929;-89
2022/04/14 08:51:44;;;;;;;;;;;17.40;99.90;;;;;;5072019;28;19971;-83
2022/04/14 08:54:13;;;;;;;;;;;17.40;99.90;;;;;;5063256;28;19933;-83
2022/04/14 08:56:41;;;;;;;;;;;17.60;99.90;;;;;;5071943;28;20022;-84
2022/04/14 08:59:07;;;;;;;;;;;17.70;99.90;;;;;;5066187;28;19989;-84
2022/04/14 09:01:34;;;;;;;;;;;17.70;99.90;;;;;;5067815;28;19925;-82
2022/04/14 09:04:01;;;;;;;;;;;17.50;99.90;;;;;;5065884;28;19947;-83
2022/04/14 09:06:29;;;;;;;;;;;17.60;99.90;;;;;;5060094;28;19928;-83
2022/04/14 09:08:56;;;;;;;;;;;17.80;99.90;;;;;;5071652;28;20372;-83
2022/04/14 09:11:22;;;;;;;;;;;17.80;99.90;;;;;;5095664;28;19940;-83
2022/04/14 09:13:49;;;;;;;;;;;17.90;99.90;;;;;;5078737;28;20374;-85
2022/04/14 09:16:15;;;;;;;;;;;17.80;99.90;;;;;;5102488;28;20359;-83
2022/04/14 09:18:42;;;;;;;;;;;17.90;99.90;;;;;;5070748;28;20375;-83
2022/04/14 09:21:08;;;;;;;;;;;17.90;99.90;;;;;;5071049;28;20379;-81
2022/04/14 09:23:36;;;;;;;;;;;17.90;99.90;;;;;;5069274;28;19928;-83
2022/04/14 09:26:03;;;;;;;;;;;18.00;99.90;;;;;;5071783;28;20025;-82
2022/04/14 09:28:29;;;;;;;;;;;18.00;99.90;;;;;;5066683;28;19925;-84
2022/04/14 09:30:56;;;;;;;;;;;18.00;99.90;;;;;;5069346;28;19924;-82
2022/04/14 09:33:23;;;;;;;;;;;18.10;99.90;;;;;;5063346;28;20520;-87
2022/04/14 09:35:49;;;;;;;;;;;18.10;99.90;;;;;;5097367;28;20402;-82
2022/04/14 09:38:16;;;;;;;;;;;18.10;99.90;;;;;;5070400;28;20294;-82
2022/04/14 09:40:44;;;;;;;;;;;18.10;99.90;;;;;;5073928;28;19994;-82
2022/04/14 09:43:11;;;;;;;;;;;18.30;99.90;;;;;;5076265;28;19924;-82
2022/04/14 09:45:37;;;;;;;;;;;18.20;99.90;;;;;;5073774;28;20553;-83
2022/04/14 09:48:04;;;;;;;;;;;18.20;99.90;;;;;;5083558;28;19924;-82
2022/04/14 09:50:32;;;;;;;;;;;18.10;99.90;;;;;;5072722;28;19948;-83
2022/04/14 09:52:58;;;;;;;;;;;18.10;99.90;;;;;;5076351;28;19924;-83
2022/04/14 09:55:25;;;;;;;;;;;18.00;99.90;;;;;;5076715;28;19928;-89
2022/04/14 09:57:51;;;;;;;;;;;17.90;99.90;;;;;;5076502;28;19925;-83
2022/04/14 10:00:18;;;;;;;;;;;17.60;99.90;;;;;;5066426;28;19939;-82
2022/04/14 10:02:44;;;;;;;;;;;17.40;99.90;;;;;;5076019;28;20470;-82
2022/04/14 10:05:11;;;;;;;;;;;17.40;99.90;;;;;;5099492;28;19925;-81
2022/04/14 10:07:38;;;;;;;;;;;17.50;99.90;;;;;;5075786;28;20379;-83
2022/04/14 10:10:05;;;;;;;;;;;17.70;99.90;;;;;;5076376;28;19924;-82
2022/04/14 10:12:32;;;;;;;;;;;17.80;99.90;;;;;;5073537;28;19925;-83
2022/04/14 10:14:58;;;;;;;;;;;17.80;99.90;;;;;;5076242;28;19933;-82
2022/04/14 10:17:25;;;;;;;;;;;17.90;99.90;;;;;;5076133;28;19929;-86
2022/04/14 10:19:52;;;;;;;;;;;18.00;99.90;;;;;;5076912;28;19924;-82
2022/04/14 10:22:18;;;;;;;;;;;18.00;99.90;;;;;;5076449;28;20283;-81
2022/04/14 10:24:45;;;;;;;;;;;18.00;99.90;;;;;;5077906;28;20539;-83
2022/04/14 10:27:11;;;;;;;;;;;18.10;99.90;;;;;;5076339;28;20007;-83
2022/04/14 10:29:39;;;;;;;;;;;18.10;99.90;;;;;;5074037;28;19931;-83
2022/04/14 10:32:05;;;;;;;;;;;18.00;99.90;;;;;;5080472;28;19937;-82
2022/04/14 10:34:32;;;;;;;;;;;18.00;99.90;;;;;;5098679;27;20392;-82
2022/04/14 10:36:59;;;;;;;;;;;18.00;99.90;;;;;;5085092;28;20378;-81
2022/04/14 10:39:25;;;;;;;;;;;18.20;99.90;;;;;;5078038;28;19928;-85
2022/04/14 10:41:52;;;;;;;;;;;18.10;99.90;;;;;;5076198;28;20371;-82
2022/04/14 10:44:18;;;;;;;;;;;18.10;99.90;;;;;;5116032;27;19935;-82
2022/04/14 10:46:48;;;;;;;;;;;18.00;99.90;;;;;;5082062;28;20347;-82
2022/04/14 10:49:14;;;;;;;;;;;17.70;99.90;;;;;;5075520;28;19928;-82
2022/04/14 10:51:41;;;;;;;;;;;17.60;99.90;;;;;;5080835;28;19924;-81
2022/04/14 10:54:08;;;;;;;;;;;17.60;99.90;;;;;;5066880;28;19924;-83
2022/04/14 10:56:35;;;;;;;;;;;17.70;99.90;;;;;;5072614;28;19924;-83
2022/04/14 10:59:01;;;;;;;;;;;17.80;99.90;;;;;;5095728;27;19931;-82
2022/04/14 11:01:28;;;;;;;;;;;17.80;99.90;;;;;;5076478;28;19935;-89
2022/04/14 11:03:55;;;;;;;;;;;17.90;99.90;;;;;;5097917;28;19925;-83
2022/04/14 11:06:22;;;;;;;;;;;18.00;99.90;;;;;;5061030;28;19932;-81
2022/04/14 11:08:48;;;;;;;;;;;18.00;99.90;;;;;;5068745;28;20485;-88
2022/04/14 11:11:15;;;;;;;;;;;17.70;99.90;;;;;;5068648;28;19925;-86
2022/04/14 11:13:41;;;;;;;;;;;17.60;99.90;;;;;;5064730;28;19928;-85
2022/04/14 11:16:08;;;;;;;;;;;17.60;99.90;;;;;;5071131;28;19924;-81
2022/04/14 11:18:34;;;;;;;;;;;17.50;99.90;;;;;;5060938;28;19925;-83
2022/04/14 11:21:01;;;;;;;;;;;17.60;99.90;;;;;;5068680;28;19929;-83
2022/04/14 11:23:28;;;;;;;;;;;17.60;99.70;;;;;;5069323;28;19939;-82
2022/04/14 11:25:55;;;;;;;;;;;17.50;99.90;;;;;;5103141;28;19929;-83
2022/04/14 11:28:21;;;;;;;;;;;17.40;99.90;;;;;;5069201;28;20019;-82
2022/04/14 11:30:48;;;;;;;;;;;17.40;99.90;;;;;;5069690;28;19928;-83
2022/04/14 11:33:15;;;;;;;;;;;17.30;99.90;;;;;;5060651;28;20286;-83
2022/04/14 11:35:41;;;;;;;;;;;17.30;99.90;;;;;;5069034;28;19984;-82
2022/04/14 11:38:10;;;;;;;;;;;17.10;99.90;;;;;;5069768;28;19925;-83
2022/04/14 11:40:37;;;;;;;;;;;17.20;99.90;;;;;;5065208;28;20004;-85
2022/04/14 11:43:03;;;;;;;;;;;17.40;99.90;;;;;;5057812;28;19955;-83
2022/04/14 11:45:30;;;;;;;;;;;17.60;99.90;;;;;;5068853;28;20528;-85
2022/04/14 11:48:00;;;;;;;;;;;17.50;99.90;;;;;;5070021;28;19972;-83
2022/04/14 11:50:26;;;;;;;;;;;17.40;99.90;;;;;;5068443;28;19932;-87
2022/04/14 11:52:53;;;;;;;;;;;17.10;99.90;;;;;;5064504;28;20035;-82
2022/04/14 11:55:19;;;;;;;;;;;17.20;99.90;;;;;;5063146;28;19924;-83
2022/04/14 11:57:46;;;;;;;;;;;17.10;99.90;;;;;;5069555;28;19928;-84
2022/04/14 12:00:13;;;;;;;;;;;17.10;99.90;;;;;;5069288;28;19935;-83
2022/04/14 12:02:40;;;;;;;;;;;17.10;99.90;;;;;;5100261;28;19974;-83
2022/04/14 12:05:06;;;;;;;;;;;17.00;99.90;;;;;;5060489;28;19924;-82
2022/04/14 12:07:33;;;;;;;;;;;16.90;99.90;;;;;;5063648;28;19925;-86
2022/04/14 12:09:59;;;;;;;;;;;17.00;99.90;;;;;;5059234;28;20478;-83
2022/04/14 12:12:26;;;;;;;;;;;17.00;99.90;;;;;;5064740;28;20378;-83
2022/04/14 12:14:53;;;;;;;;;;;17.30;99.90;;;;;;5058981;28;19928;-83
2022/04/14 12:17:22;;;;;;;;;;;17.30;99.90;;;;;;5063013;28;20386;-84
2022/04/14 12:19:48;;;;;;;;;;;17.40;99.90;;;;;;5067497;28;20513;-86
2022/04/14 12:22:15;;;;;;;;;;;17.40;99.90;;;;;;5062019;28;19932;-84
2022/04/14 12:24:41;;;;;;;;;;;17.40;99.90;;;;;;5067042;28;19929;-83
2022/04/14 12:27:08;;;;;;;;;;;17.40;99.90;;;;;;5068188;28;19929;-83
2022/04/14 12:29:35;;;;;;;;;;;17.40;99.90;;;;;;5067518;28;19928;-87
2022/04/14 12:32:01;;;;;;;;;;;17.40;99.90;;;;;;5067282;28;20359;-83
2022/04/14 12:34:29;;;;;;;;;;;17.40;99.90;;;;;;5087066;28;19932;-83
2022/04/14 12:36:56;;;;;;;;;;;17.40;99.90;;;;;;5062170;28;19925;-82
2022/04/14 12:39:22;;;;;;;;;;;17.50;99.90;;;;;;5067954;28;19935;-82
2022/04/14 12:41:49;;;;;;;;;;;17.50;99.90;;;;;;5066809;28;19982;-83
2022/04/14 12:44:15;;;;;;;;;;;17.30;99.90;;;;;;5055494;28;19928;-83
2022/04/14 12:46:42;;;;;;;;;;;17.20;99.90;;;;;;5067347;28;19924;-82
2022/04/14 12:49:09;;;;;;;;;;;17.20;99.90;;;;;;5049147;28;19932;-83
2022/04/14 12:51:35;;;;;;;;;;;17.30;99.90;;;;;;5059556;28;20636;-85
2022/04/14 12:54:02;;;;;;;;;;;17.10;99.90;;;;;;5066821;28;20402;-85
2022/04/14 12:56:28;;;;;;;;;;;17.10;99.90;;;;;;5067381;28;20528;-85
2022/04/14 12:58:55;;;;;;;;;;;17.00;99.90;;;;;;5060242;28;19978;-83
2022/04/14 13:01:21;;;;;;;;;;;16.90;99.90;;;;;;5064677;28;20459;-82
2022/04/14 13:03:50;;;;;;;;;;;16.80;99.90;;;;;;5060595;28;20001;-83
2022/04/14 13:06:17;;;;;;;;;;;17.10;99.90;;;;;;5067789;28;19935;-81
2022/04/14 13:08:43;;;;;;;;;;;17.00;99.90;;;;;;5067008;28;19928;-83
2022/04/14 13:11:10;;;;;;;;;;;17.10;99.90;;;;;;5067072;28;20383;-82
2022/04/14 13:13:37;;;;;;;;;;;16.80;99.90;;;;;;5065350;28;19932;-82
2022/04/14 13:16:03;;;;;;;;;;;16.80;99.90;;;;;;5065748;28;19936;-82
2022/04/14 13:18:30;;;;;;;;;;;16.60;99.90;;;;;;5060171;28;19924;-83
2022/04/14 13:20:57;;;;;;;;;;;16.60;99.90;;;;;;5071961;28;19925;-81
2022/04/14 13:23:24;;;;;;;;;;;16.50;99.90;;;;;;5071555;28;19924;-81
2022/04/14 13:25:51;;;;;;;;;;;16.40;99.90;;;;;;5069747;28;19925;-81
2022/04/14 13:28:18;;;;;;;;;;;16.20;99.90;;;;;;5063976;28;19996;-81
2022/04/14 13:30:44;;;;;;;;;;;16.50;99.90;;;;;;5060839;28;19935;-82
2022/04/14 13:33:11;;;;;;;;;;;16.20;99.90;;;;;;5070284;28;19938;-81
2022/04/14 13:35:38;;;;;;;;;;;16.20;99.90;;;;;;5070711;28;19994;-80
2022/04/14 13:38:04;;;;;;;;;;;16.00;99.90;;;;;;5060111;28;19929;-81
2022/04/14 13:40:31;;;;;;;;;;;16.10;99.90;;;;;;5068869;28;20360;-81
2022/04/14 13:42:57;;;;;;;;;;;15.90;99.90;;;;;;5060885;28;19925;-81
2022/04/14 13:45:24;;;;;;;;;;;15.80;99.90;;;;;;5069458;28;19931;-80
2022/04/14 13:47:50;;;;;;;;;;;15.80;99.90;;;;;;5073212;28;20013;-81
2022/04/14 13:50:17;;;;;;;;;;;15.70;99.90;;;;;;5065272;28;19932;-81
2022/04/14 13:52:44;;;;;;;;;;;15.80;99.90;;;;;;5072594;28;19929;-85
2022/04/14 13:55:10;;;;;;;;;;;15.80;99.90;;;;;;5065196;28;19931;-80
2022/04/14 13:57:37;;;;;;;;;;;15.50;99.90;;;;;;5075720;28;19928;-81
2022/04/14 14:00:03;;;;;;;;;;;15.90;99.90;;;;;;5069142;28;19928;-81
2022/04/14 14:02:30;;;;;;;;;;;15.60;99.90;;;;;;5097844;28;19964;-81
2022/04/14 14:04:56;;;;;;;;;;;15.50;99.90;;;;;;5072252;28;19939;-80
2022/04/14 14:07:24;;;;;;;;;;;15.40;99.90;;;;;;5074782;28;19931;-80
2022/04/14 14:09:51;;;;;;;;;;;15.50;99.90;;;;;;5069097;28;19948;-81
2022/04/14 14:12:17;;;;;;;;;;;15.60;99.90;;;;;;5069691;28;20402;-82
2022/04/14 14:14:44;;;;;;;;;;;15.30;99.90;;;;;;5069646;28;19931;-81